Time;durP1;ratioP1;P1;durP2;ratioP2;P2;SDS_P1;SDS_P2;PMS_P1;PMS_P2;Temp;Humidity;BMP_temperature;BMP_pressure;BME280_temperature;BME280_humidity;BME280_pressure;Samples;Min_cycle;Max_cycle;Signal;HPM_P1;HPM_P2
2022/06/17 00:01:03;;;;;;;9.95;3.20;;;24.30;74.00;;;;;;4985204;28;20193;-75
2022/06/17 00:03:34;;;;;;;6.97;3.55;;;24.30;74.00;;;;;;4984352;28;20197;-76
2022/06/17 00:06:05;;;;;;;7.93;3.20;;;24.30;73.80;;;;;;4982298;28;20220;-76
2022/06/17 00:08:40;;;;;;;5.13;2.83;;;24.30;73.60;;;;;;4983427;28;20189;-76
2022/06/17 00:11:13;;;;;;;7.65;2.90;;;24.20;73.00;;;;;;4983213;28;20209;-75
2022/06/17 00:13:42;;;;;;;4.00;2.70;;;24.20;73.00;;;;;;4982548;28;20248;-76
2022/06/17 00:16:12;;;;;;;4.43;2.72;;;24.20;72.70;;;;;;4986311;28;20189;-76
2022/06/17 00:18:41;;;;;;;11.80;2.70;;;24.10;72.50;;;;;;4980960;28;20203;-75
2022/06/17 00:21:19;;;;;;;5.93;2.70;;;24.10;72.20;;;;;;4979656;28;20201;-76
2022/06/17 00:23:48;;;;;;;5.75;2.63;;;24.10;72.00;;;;;;4981869;28;20201;-76
2022/06/17 00:26:16;;;;;;;3.70;2.10;;;24.00;71.90;;;;;;4985572;28;20192;-76
2022/06/17 00:28:45;;;;;;;5.43;2.58;;;24.00;71.90;;;;;;4979457;28;20197;-76
2022/06/17 00:31:13;;;;;;;6.05;2.17;;;24.00;71.90;;;;;;4983024;28;20208;-76
2022/06/17 00:33:42;;;;;;;3.35;2.10;;;24.00;71.90;;;;;;4985287;28;20220;-76
2022/06/17 00:36:15;;;;;;;3.50;2.17;;;24.00;71.70;;;;;;4981309;28;20458;-76
2022/06/17 00:38:45;;;;;;;3.65;1.90;;;23.90;71.60;;;;;;4984481;28;20196;-76
2022/06/17 00:41:21;;;;;;;5.20;1.90;;;23.90;71.70;;;;;;4983515;28;20534;-76
2022/06/17 00:43:49;;;;;;;4.82;2.13;;;23.90;71.70;;;;;;4984471;28;20193;-76
2022/06/17 00:46:28;;;;;;;8.43;2.38;;;23.80;71.80;;;;;;4979639;28;20189;-76
2022/06/17 00:49:06;;;;;;;4.57;2.10;;;23.80;71.90;;;;;;4984723;28;20243;-76
2022/06/17 00:51:44;;;;;;;3.22;2.00;;;23.80;72.00;;;;;;4982955;28;20215;-76
2022/06/17 00:54:22;;;;;;;5.05;2.67;;;23.80;72.10;;;;;;4983046;28;20344;-76
2022/06/17 00:56:51;;;;;;;5.63;2.17;;;23.80;72.40;;;;;;4984333;28;20193;-76
2022/06/17 00:59:19;;;;;;;6.47;2.20;;;23.80;72.40;;;;;;4980911;28;20208;-76
2022/06/17 01:01:53;;;;;;;3.63;2.10;;;23.70;72.40;;;;;;4981533;28;20197;-76
2022/06/17 01:04:24;;;;;;;5.07;2.15;;;23.70;72.50;;;;;;4986602;28;20232;-76
2022/06/17 01:06:57;;;;;;;3.10;1.80;;;23.70;72.40;;;;;;4986512;28;20189;-76
2022/06/17 01:12:18;;;;;;;7.22;2.05;;;23.70;72.50;;;;;;4976331;28;20192;-76
2022/06/17 01:14:47;;;;;;;2.55;1.73;;;23.60;72.40;;;;;;4981942;28;20209;-76
2022/06/17 01:17:20;;;;;;;4.80;1.70;;;23.60;72.40;;;;;;4980258;28;20207;-76
2022/06/17 01:19:52;;;;;;;7.55;2.13;;;23.60;73.00;;;;;;4982552;28;20255;-75
2022/06/17 01:22:34;;;;;;;3.40;2.10;;;23.60;72.40;;;;;;4982948;28;20205;-76
2022/06/17 01:25:05;;;;;;;2.65;1.70;;;23.60;72.30;;;;;;4982956;28;20189;-76
2022/06/17 01:27:37;;;;;;;3.03;1.70;;;23.60;72.20;;;;;;4983591;28;20193;-76
2022/06/17 01:30:09;;;;;;;3.42;1.90;;;23.60;72.20;;;;;;4980139;28;20196;-76
2022/06/17 01:32:43;;;;;;;5.35;2.47;;;23.70;72.20;;;;;;4980437;28;20196;-77
2022/06/17 01:35:13;;;;;;;5.82;2.50;;;23.60;72.10;;;;;;4984073;28;20219;-76
2022/06/17 01:37:46;;;;;;;7.93;2.50;;;23.60;72.20;;;;;;4982910;28;20204;-77
2022/06/17 01:40:15;;;;;;;3.78;1.95;;;23.60;72.50;;;;;;4980306;28;20606;-76
2022/06/17 01:42:44;;;;;;;4.82;2.05;;;23.60;72.50;;;;;;4983661;28;20193;-76
2022/06/17 01:45:13;;;;;;;4.95;2.50;;;23.60;72.60;;;;;;4984315;28;20189;-76
2022/06/17 01:47:45;;;;;;;3.15;2.03;;;23.60;72.60;;;;;;4984539;28;20194;-76
2022/06/17 01:50:17;;;;;;;3.38;1.80;;;23.60;72.60;;;;;;4980069;28;20874;-76
2022/06/17 01:52:53;;;;;;;3.55;1.83;;;23.60;72.70;;;;;;4981259;28;20243;-76
2022/06/17 01:55:27;;;;;;;3.25;1.77;;;23.60;72.70;;;;;;4981753;28;20216;-75
2022/06/17 01:58:02;;;;;;;6.97;2.10;;;23.60;72.70;;;;;;4976367;28;20193;-76
2022/06/17 02:00:31;;;;;;;5.13;2.28;;;23.60;72.90;;;;;;4985083;28;20196;-76
2022/06/17 02:03:05;;;;;;;4.20;2.33;;;23.60;73.10;;;;;;4977663;28;20664;-76
2022/06/17 02:05:39;;;;;;;5.60;2.20;;;23.60;73.30;;;;;;4983320;28;20224;-76
2022/06/17 02:08:10;;;;;;;8.65;1.90;;;23.50;73.40;;;;;;4985983;28;20200;-76
2022/06/17 02:10:42;;;;;;;7.03;2.45;;;23.50;73.70;;;;;;4979498;28;20197;-76
2022/06/17 02:13:12;;;;;;;7.45;2.38;;;23.50;73.70;;;;;;4981741;28;20243;-76
2022/06/17 02:15:42;;;;;;;4.03;2.20;;;23.50;73.80;;;;;;4983247;28;20205;-76
2022/06/17 02:18:15;;;;;;;5.05;2.40;;;23.40;73.80;;;;;;4984284;28;20193;-76
2022/06/17 02:20:45;;;;;;;4.32;2.10;;;23.40;73.90;;;;;;4983602;28;20189;-76
2022/06/17 02:23:15;;;;;;;3.30;2.35;;;23.40;74.30;;;;;;4981496;28;20200;-76
2022/06/17 02:25:47;;;;;;;4.57;2.10;;;23.40;74.40;;;;;;4977933;28;20203;-76
2022/06/17 02:28:16;;;;;;;7.97;2.45;;;23.40;74.60;;;;;;4980459;28;20804;-75
2022/06/17 02:30:47;;;;;;;5.63;2.40;;;23.30;74.70;;;;;;4979593;28;20193;-77
2022/06/17 02:33:17;;;;;;;4.78;2.10;;;23.30;74.80;;;;;;4981984;28;20309;-76
2022/06/17 02:35:50;;;;;;;4.22;2.42;;;23.30;74.70;;;;;;4983802;28;20232;-76
2022/06/17 02:38:23;;;;;;;5.22;2.65;;;23.30;74.70;;;;;;4982675;28;20189;-76
2022/06/17 02:40:53;;;;;;;4.95;2.58;;;23.30;74.60;;;;;;4980417;28;20231;-76
2022/06/17 02:43:25;;;;;;;7.57;2.33;;;23.30;74.60;;;;;;4977581;28;21034;-76
2022/06/17 02:45:59;;;;;;;6.10;2.45;;;23.30;74.70;;;;;;4982605;28;20235;-76
2022/06/17 02:48:29;;;;;;;3.22;1.95;;;23.20;74.80;;;;;;4981448;28;20193;-76
2022/06/17 02:51:00;;;;;;;6.22;2.45;;;23.20;75.00;;;;;;4981501;28;20227;-76
2022/06/17 02:53:35;;;;;;;8.82;2.47;;;23.20;75.00;;;;;;4982066;28;20229;-75
2022/06/17 02:56:07;;;;;;;4.25;2.65;;;23.20;75.00;;;;;;4980874;28;20626;-76
2022/06/17 02:58:46;;;;;;;7.22;2.70;;;23.20;74.80;;;;;;4977622;28;20189;-76
2022/06/17 03:01:18;;;;;;;5.05;2.50;;;23.20;75.00;;;;;;4976315;28;20197;-76
2022/06/17 03:03:48;;;;;;;6.00;2.55;;;23.10;75.10;;;;;;4979532;28;20294;-75
2022/06/17 03:06:20;;;;;;;6.70;2.70;;;23.10;75.10;;;;;;4981123;28;20193;-76
2022/06/17 03:08:52;;;;;;;3.90;2.45;;;23.10;75.20;;;;;;4979062;28;20196;-76
2022/06/17 03:11:22;;;;;;;9.70;2.78;;;23.10;75.40;;;;;;4981834;28;20563;-76
2022/06/17 03:13:54;;;;;;;4.65;2.53;;;23.10;75.70;;;;;;4978477;28;20196;-75
2022/06/17 03:16:24;;;;;;;5.00;2.35;;;23.10;75.80;;;;;;4985320;28;20718;-76
2022/06/17 03:18:55;;;;;;;5.82;2.58;;;23.00;75.80;;;;;;4983377;28;20228;-76
2022/06/17 03:21:25;;;;;;;4.68;2.83;;;23.10;75.90;;;;;;4986908;28;20293;-76
2022/06/17 03:24:02;;;;;;;4.18;2.50;;;23.00;76.00;;;;;;4982268;28;20185;-76
2022/06/17 03:26:37;;;;;;;9.63;2.80;;;23.00;76.10;;;;;;4986219;28;20212;-76
2022/06/17 03:29:07;;;;;;;8.52;3.38;;;23.00;76.30;;;;;;4984226;28;20188;-76
2022/06/17 03:31:40;;;;;;;11.27;2.58;;;23.00;76.30;;;;;;4982675;28;20525;-76
2022/06/17 03:34:13;;;;;;;8.30;2.60;;;23.00;76.50;;;;;;4981295;28;20329;-76
2022/06/17 03:36:46;;;;;;;10.85;2.95;;;23.00;76.80;;;;;;4979380;28;20209;-76
2022/06/17 03:39:23;;;;;;;14.55;3.25;;;23.00;76.90;;;;;;4987120;28;20193;-76
2022/06/17 03:41:56;;;;;;;8.15;3.05;;;23.00;76.90;;;;;;4981243;28;20283;-76
2022/06/17 03:44:30;;;;;;;7.82;2.75;;;23.00;76.90;;;;;;4979465;28;20631;-76
2022/06/17 03:47:04;;;;;;;6.95;3.15;;;23.10;76.90;;;;;;4982106;28;20255;-76
2022/06/17 03:49:41;;;;;;;9.85;3.40;;;23.00;77.00;;;;;;4984279;28;20189;-76
2022/06/17 03:52:16;;;;;;;7.75;3.25;;;23.10;77.30;;;;;;4987909;28;20612;-76
2022/06/17 03:54:47;;;;;;;7.70;3.03;;;23.10;77.50;;;;;;4980936;28;20219;-75
2022/06/17 03:57:17;;;;;;;9.65;4.43;;;23.10;77.60;;;;;;4985061;28;20220;-76
2022/06/17 03:59:50;;;;;;;11.57;3.95;;;23.10;77.60;;;;;;4984210;28;20193;-76
2022/06/17 04:02:20;;;;;;;6.50;3.05;;;23.10;77.70;;;;;;4984440;28;20189;-76
2022/06/17 04:04:52;;;;;;;7.05;3.75;;;23.20;77.70;;;;;;4983610;28;20205;-76
2022/06/17 04:07:20;;;;;;;9.10;3.65;;;23.20;77.60;;;;;;4975821;28;20677;-76
2022/06/17 04:09:51;;;;;;;5.10;3.53;;;23.30;77.50;;;;;;4985049;28;20208;-76
2022/06/17 04:12:27;;;;;;;7.10;3.25;;;23.30;77.30;;;;;;4985265;28;20196;-76
2022/06/17 04:15:01;;;;;;;7.40;3.47;;;23.40;77.10;;;;;;4982283;28;20681;-76
2022/06/17 04:17:35;;;;;;;7.95;3.70;;;23.50;77.10;;;;;;4982758;28;20220;-77
2022/06/17 04:20:25;;;;;;;6.97;2.90;;;23.50;77.10;;;;;;4975864;28;20208;-76
2022/06/17 04:22:57;;;;;;;8.65;3.75;;;23.60;76.90;;;;;;4985067;28;20736;-76
2022/06/17 04:25:33;;;;;;;5.88;3.40;;;23.70;76.70;;;;;;4983937;28;20642;-76
2022/06/17 04:28:06;;;;;;;7.53;2.80;;;23.70;76.60;;;;;;4984345;28;20207;-76
2022/06/17 04:30:40;;;;;;;5.45;2.55;;;23.70;76.50;;;;;;4981924;28;20196;-76
2022/06/17 04:33:21;;;;;;;6.03;3.17;;;23.80;76.10;;;;;;4982315;28;20194;-77
2022/06/17 04:35:54;;;;;;;5.72;2.85;;;23.80;75.80;;;;;;4983503;28;20775;-76
2022/06/17 04:38:22;;;;;;;5.97;2.47;;;23.80;75.50;;;;;;4981768;28;20200;-76
2022/06/17 04:40:56;;;;;;;7.60;2.45;;;23.80;75.20;;;;;;4983858;28;20212;-76
2022/06/17 04:43:29;;;;;;;7.15;2.78;;;23.80;74.30;;;;;;4976101;28;20851;-77
2022/06/17 04:46:02;;;;;;;11.27;2.67;;;23.80;74.80;;;;;;4982503;28;20194;-76
2022/06/17 04:48:31;;;;;;;7.72;2.53;;;23.80;73.60;;;;;;4982734;28;20285;-76
2022/06/17 04:51:00;;;;;;;7.25;2.65;;;23.80;73.30;;;;;;4983471;28;20234;-76
2022/06/17 04:53:31;;;;;;;5.43;2.03;;;23.80;73.20;;;;;;4985138;28;20235;-76
2022/06/17 04:56:03;;;;;;;3.13;1.65;;;23.80;73.00;;;;;;4984376;28;20220;-77
2022/06/17 04:58:32;;;;;;;3.13;1.88;;;23.70;71.90;;;;;;4985853;28;20193;-76
2022/06/17 05:01:00;;;;;;;4.28;1.60;;;23.70;70.70;;;;;;4982970;28;20204;-76
2022/06/17 05:03:31;;;;;;;7.65;2.33;;;23.70;70.20;;;;;;4981625;28;20290;-76
2022/06/17 05:05:59;;;;;;;9.65;1.88;;;23.70;69.90;;;;;;4980664;28;20196;-76
2022/06/17 05:08:40;;;;;;;3.10;1.60;;;23.70;70.10;;;;;;4983728;28;20196;-76
2022/06/17 05:11:18;;;;;;;7.97;2.03;;;23.60;70.30;;;;;;4985250;28;20197;-76
2022/06/17 05:13:52;;;;;;;8.00;2.47;;;23.60;70.70;;;;;;4985205;28;20204;-76
2022/06/17 05:16:22;;;;;;;2.72;1.85;;;23.60;71.00;;;;;;4983902;28;20215;-76
2022/06/17 05:18:51;;;;;;;10.23;2.20;;;23.60;71.10;;;;;;4986127;28;20193;-76
2022/06/17 05:21:23;;;;;;;9.48;2.55;;;23.60;71.20;;;;;;4986755;28;20208;-76
2022/06/17 05:23:56;;;;;;;8.57;2.42;;;23.60;71.00;;;;;;4978726;28;20941;-77
2022/06/17 05:26:26;;;;;;;8.27;2.25;;;23.70;70.70;;;;;;4986539;28;20204;-76
2022/06/17 05:28:55;;;;;;;11.45;2.03;;;23.70;70.90;;;;;;4982322;28;20193;-76
2022/06/17 05:31:26;;;;;;;11.70;2.78;;;23.70;70.80;;;;;;4982209;28;20212;-76
2022/06/17 05:33:55;;;;;;;12.55;2.55;;;23.70;70.90;;;;;;4985422;28;20197;-76
2022/06/17 05:36:23;;;;;;;6.85;2.20;;;23.70;70.70;;;;;;4985672;28;20233;-76
2022/06/17 05:38:52;;;;;;;5.70;2.00;;;23.70;70.60;;;;;;4986046;28;20834;-76
2022/06/17 05:41:23;;;;;;;5.88;2.05;;;23.80;70.90;;;;;;4983110;28;20240;-76
2022/06/17 05:43:53;;;;;;;7.55;2.47;;;23.80;70.80;;;;;;4985867;28;20878;-76
2022/06/17 05:46:22;;;;;;;10.65;2.38;;;23.80;71.10;;;;;;4983946;28;20189;-76
2022/06/17 05:48:50;;;;;;;10.50;2.35;;;23.90;71.10;;;;;;4984297;28;20251;-76
2022/06/17 05:51:18;;;;;;;6.40;2.40;;;23.90;70.80;;;;;;4984894;28;20649;-77
2022/06/17 05:53:47;;;;;;;8.05;2.63;;;24.00;70.90;;;;;;4991951;28;20705;-77
2022/06/17 05:56:15;;;;;;;7.45;2.55;;;24.00;72.20;;;;;;4984650;28;20209;-76
2022/06/17 05:58:44;;;;;;;8.95;2.50;;;24.00;71.50;;;;;;4980658;28;20193;-76
2022/06/17 06:01:14;;;;;;;10.43;2.58;;;24.00;71.50;;;;;;4980722;28;20220;-76
2022/06/17 06:03:43;;;;;;;9.25;2.80;;;24.10;71.70;;;;;;4983912;28;20185;-76
2022/06/17 06:06:11;;;;;;;9.25;2.08;;;24.20;72.00;;;;;;4982992;28;20192;-76
2022/06/17 06:08:39;;;;;;;12.13;2.75;;;24.20;72.00;;;;;;4982747;28;20197;-76
2022/06/17 06:11:08;;;;;;;8.43;2.08;;;24.30;72.20;;;;;;4984732;28;20623;-77
2022/06/17 06:13:37;;;;;;;7.45;2.30;;;24.30;72.30;;;;;;4977340;28;20231;-76
2022/06/17 06:16:08;;;;;;;7.38;1.92;;;24.40;72.10;;;;;;4972522;28;20205;-76
2022/06/17 06:18:40;;;;;;;5.65;2.10;;;24.40;71.20;;;;;;4981468;28;20221;-76
2022/06/17 06:21:09;;;;;;;12.20;3.10;;;24.40;71.30;;;;;;4979645;28;20271;-76
2022/06/17 06:23:39;;;;;;;4.60;2.25;;;24.40;71.40;;;;;;4983392;28;20200;-75
2022/06/17 06:26:16;;;;;;;7.38;1.98;;;24.50;71.20;;;;;;4985014;28;20200;-76
2022/06/17 06:28:45;;;;;;;4.72;2.35;;;24.50;71.30;;;;;;4982311;28;20193;-76
2022/06/17 06:31:25;;;;;;;3.63;2.38;;;24.60;71.30;;;;;;4981994;28;20208;-77
2022/06/17 06:33:55;;;;;;;6.75;2.80;;;24.70;71.20;;;;;;4983763;28;20192;-76
2022/06/17 06:36:24;;;;;;;4.60;2.13;;;24.70;70.40;;;;;;4983519;28;20219;-77
2022/06/17 06:38:52;;;;;;;8.10;2.13;;;24.70;70.00;;;;;;4980274;28;20201;-76
2022/06/17 06:41:21;;;;;;;7.97;1.85;;;24.70;70.20;;;;;;4978998;28;20650;-77
2022/06/17 06:43:52;;;;;;;7.32;2.10;;;24.70;69.90;;;;;;4983101;28;20223;-76
2022/06/17 06:46:22;;;;;;;5.70;2.20;;;24.80;69.90;;;;;;4975226;28;20189;-76
2022/06/17 06:48:58;;;;;;;5.07;2.47;;;24.80;70.00;;;;;;4980812;28;20189;-76
2022/06/17 06:51:27;;;;;;;6.68;2.03;;;24.90;70.40;;;;;;4979834;28;20197;-76
2022/06/17 06:53:55;;;;;;;4.43;2.33;;;25.00;70.60;;;;;;4979669;28;20225;-75
2022/06/17 06:56:24;;;;;;;7.50;2.30;;;25.00;70.50;;;;;;4981932;28;20208;-76
2022/06/17 06:58:52;;;;;;;3.10;1.90;;;25.00;70.30;;;;;;4975712;28;20962;-75
2022/06/17 07:01:20;;;;;;;7.55;2.63;;;25.20;70.50;;;;;;4981357;28;21233;-76
2022/06/17 07:03:49;;;;;;;5.53;2.75;;;25.20;70.60;;;;;;4983413;28;20284;-75
2022/06/17 07:06:19;;;;;;;7.03;2.70;;;25.30;70.30;;;;;;4983013;28;20203;-75
2022/06/17 07:08:47;;;;;;;10.18;2.70;;;25.30;70.10;;;;;;4977818;28;20205;-76
2022/06/17 07:11:16;;;;;;;8.20;2.40;;;25.30;70.30;;;;;;4982373;28;20193;-76
2022/06/17 07:13:45;;;;;;;6.78;2.13;;;25.40;70.10;;;;;;4980782;28;20197;-76
2022/06/17 07:16:14;;;;;;;8.45;2.03;;;25.40;70.10;;;;;;4981424;28;20205;-75
2022/06/17 07:18:42;;;;;;;7.28;2.78;;;25.40;70.00;;;;;;4978526;28;20311;-75
2022/06/17 07:21:14;;;;;;;5.70;2.70;;;25.50;70.10;;;;;;4980891;28;20549;-76
2022/06/17 07:23:47;;;;;;;7.57;2.50;;;25.50;69.70;;;;;;4982641;28;20197;-75
2022/06/17 07:26:18;;;;;;;6.65;2.25;;;25.60;69.90;;;;;;4979940;28;20193;-75
2022/06/17 07:28:48;;;;;;;4.28;2.40;;;25.60;70.20;;;;;;4975367;28;20204;-76
2022/06/17 07:31:17;;;;;;;5.75;2.60;;;25.60;70.00;;;;;;4972084;28;20193;-76
2022/06/17 07:33:46;;;;;;;8.02;2.53;;;25.70;70.10;;;;;;4980361;28;20201;-75
2022/06/17 07:39:53;;;;;;;5.88;2.40;;;25.70;70.30;;;;;;4982212;28;20189;-76
2022/06/17 07:41:57;;;;;;;8.52;2.80;;;25.80;70.80;;;;;;4975281;28;20255;-76
2022/06/17 07:44:26;;;;;;;9.07;2.42;;;25.80;70.70;;;;;;4980069;28;20209;-76
2022/06/17 07:46:55;;;;;;;7.65;2.95;;;25.80;70.50;;;;;;4978203;28;20224;-75
2022/06/17 07:49:23;;;;;;;13.65;2.72;;;25.90;70.50;;;;;;4981885;28;20243;-77
2022/06/17 07:51:52;;;;;;;9.90;2.72;;;25.90;70.40;;;;;;4983773;28;20252;-76
2022/06/17 07:54:22;;;;;;;5.30;2.38;;;26.00;70.30;;;;;;4974221;28;20220;-76
2022/06/17 07:56:55;;;;;;;4.82;2.60;;;26.10;70.40;;;;;;4978880;28;20188;-77
2022/06/17 07:59:23;;;;;;;10.35;2.58;;;26.10;70.10;;;;;;4983481;28;20224;-75
2022/06/17 08:01:52;;;;;;;7.47;2.90;;;26.20;70.00;;;;;;4984844;28;20206;-77
2022/06/17 08:04:21;;;;;;;5.93;2.33;;;26.30;70.20;;;;;;4971630;28;20734;-77
2022/06/17 08:06:50;;;;;;;7.20;2.00;;;26.40;70.00;;;;;;4980558;28;20208;-76
2022/06/17 08:09:19;;;;;;;4.72;1.70;;;26.40;68.80;;;;;;4979397;28;20656;-77
2022/06/17 08:11:49;;;;;;;6.45;2.30;;;26.50;68.60;;;;;;4982653;28;20848;-76
2022/06/17 08:14:18;;;;;;;6.30;2.28;;;26.60;68.70;;;;;;4983766;28;20677;-76
2022/06/17 08:16:46;;;;;;;10.57;2.28;;;26.70;67.80;;;;;;4983866;28;20220;-76
2022/06/17 08:19:15;;;;;;;4.28;2.10;;;26.80;67.20;;;;;;4979102;28;20234;-76
2022/06/17 08:21:44;;;;;;;8.07;2.20;;;26.80;66.30;;;;;;4985326;28;20212;-76
2022/06/17 08:24:28;;;;;;;4.95;2.10;;;26.80;66.10;;;;;;4984189;28;20750;-76
2022/06/17 08:26:57;;;;;;;4.65;2.13;;;26.90;65.90;;;;;;4984400;28;20197;-77
2022/06/17 08:29:26;;;;;;;7.00;2.42;;;26.90;64.20;;;;;;4976924;28;20203;-75
2022/06/17 08:35:00;;;;;;;7.20;2.03;;;27.10;65.20;;;;;;4980737;28;20873;-77
2022/06/17 08:37:29;;;;;;;4.90;2.53;;;27.00;65.50;;;;;;4983436;28;20205;-77
2022/06/17 08:39:58;;;;;;;7.07;2.78;;;27.00;65.30;;;;;;4983659;28;20205;-76
2022/06/17 08:42:43;;;;;;;6.70;2.60;;;27.10;65.40;;;;;;4977046;28;20201;-76
2022/06/17 08:45:22;;;;;;;5.32;2.17;;;27.10;65.70;;;;;;4982206;28;20196;-76
2022/06/17 08:48:08;;;;;;;6.20;2.45;;;27.10;66.20;;;;;;4985386;28;20215;-77
2022/06/17 08:51:00;;;;;;;5.30;2.40;;;27.20;65.10;;;;;;4980099;28;21198;-76
2022/06/17 08:54:00;;;;;;;6.63;2.17;;;27.20;65.10;;;;;;4982797;28;20221;-76
2022/06/17 08:56:35;;;;;;;6.45;1.98;;;27.30;64.40;;;;;;4974710;28;21968;-76
2022/06/17 08:59:16;;;;;;;4.35;2.28;;;27.30;63.70;;;;;;4985576;28;20216;-78
2022/06/17 09:01:53;;;;;;;3.33;2.20;;;27.40;63.70;;;;;;4985167;28;20197;-77
2022/06/17 09:04:36;;;;;;;11.02;2.13;;;27.50;63.30;;;;;;4986112;28;20185;-78
2022/06/17 09:07:16;;;;;;;4.05;1.95;;;27.60;63.00;;;;;;4987315;28;20189;-77
2022/06/17 09:10:08;;;;;;;2.83;1.85;;;27.70;62.80;;;;;;4985973;28;20197;-76
2022/06/17 09:12:50;;;;;;;4.32;1.88;;;27.70;62.70;;;;;;4980089;28;20197;-75
2022/06/17 09:15:28;;;;;;;5.00;1.95;;;27.70;62.90;;;;;;4984847;28;20205;-76
2022/06/17 09:18:15;;;;;;;4.55;2.05;;;27.70;62.80;;;;;;4986963;28;20203;-77
2022/06/17 09:20:47;;;;;;;5.38;1.88;;;27.80;62.60;;;;;;4985798;28;20201;-77
2022/06/17 09:23:21;;;;;;;5.13;2.15;;;27.80;62.90;;;;;;4982176;28;20189;-75
2022/06/17 09:25:50;;;;;;;4.38;1.90;;;27.80;63.30;;;;;;4982609;28;20189;-77
2022/06/17 09:28:24;;;;;;;3.88;2.20;;;27.80;63.40;;;;;;4983945;28;20702;-77
2022/06/17 09:30:59;;;;;;;3.78;2.20;;;27.90;63.80;;;;;;4975920;28;20220;-77
2022/06/17 09:33:33;;;;;;;3.40;2.10;;;27.90;63.70;;;;;;4982295;28;20189;-76
2022/06/17 09:36:09;;;;;;;3.42;1.83;;;27.90;63.30;;;;;;4979946;28;20188;-77
2022/06/17 09:38:41;;;;;;;6.35;2.13;;;28.00;63.30;;;;;;4983147;28;20212;-76
2022/06/17 09:41:15;;;;;;;3.33;2.30;;;27.90;62.20;;;;;;4983942;28;20212;-77
2022/06/17 09:43:49;;;;;;;4.75;2.75;;;27.90;62.10;;;;;;4983587;28;20201;-76
2022/06/17 09:46:23;;;;;;;7.32;2.50;;;27.90;61.80;;;;;;4982011;28;20604;-77
2022/06/17 09:48:59;;;;;;;4.65;2.17;;;27.90;61.60;;;;;;4981698;28;20188;-76
2022/06/17 09:51:32;;;;;;;2.47;1.90;;;27.90;61.50;;;;;;4988011;28;20205;-76
2022/06/17 09:54:07;;;;;;;3.65;1.90;;;28.00;62.00;;;;;;4986791;28;20216;-77
2022/06/17 09:56:42;;;;;;;6.10;1.70;;;28.00;61.10;;;;;;4979283;28;20196;-77
2022/06/17 09:59:17;;;;;;;5.13;2.25;;;28.10;60.90;;;;;;4978186;28;20744;-77
2022/06/17 10:01:47;;;;;;;5.38;2.00;;;28.10;61.10;;;;;;4983388;28;20759;-78
2022/06/17 10:04:18;;;;;;;2.60;2.00;;;28.10;61.50;;;;;;4987111;28;20201;-78
2022/06/17 10:07:00;;;;;;;7.20;1.90;;;28.20;61.10;;;;;;4985300;28;20689;-76
2022/06/17 10:09:44;;;;;;;2.78;2.15;;;28.30;60.70;;;;;;4979757;28;20212;-77
2022/06/17 10:12:22;;;;;;;3.67;1.90;;;28.30;61.10;;;;;;4979797;28;20193;-76
2022/06/17 10:15:08;;;;;;;4.85;2.15;;;28.40;60.50;;;;;;4979856;28;20189;-77
2022/06/17 10:20:48;;;;;;;2.95;1.80;;;28.60;60.50;;;;;;4982702;28;20215;-78
2022/06/17 10:23:30;;;;;;;9.18;2.22;;;28.70;60.10;;;;;;4981937;28;20200;-78
2022/06/17 10:26:12;;;;;;;6.57;1.85;;;28.80;60.40;;;;;;4973597;28;20185;-77
2022/06/17 10:28:56;;;;;;;7.70;2.28;;;28.80;59.70;;;;;;4970571;28;20197;-77
2022/06/17 10:31:34;;;;;;;5.90;1.73;;;28.90;59.60;;;;;;4979368;28;20216;-78
2022/06/17 10:34:07;;;;;;;5.10;2.15;;;28.90;58.90;;;;;;4979643;28;20670;-77
2022/06/17 10:36:41;;;;;;;3.10;2.10;;;29.00;58.60;;;;;;4977339;28;20193;-78
2022/06/17 10:39:16;;;;;;;3.30;1.95;;;29.10;58.70;;;;;;4982502;28;20270;-78
2022/06/17 10:41:48;;;;;;;7.03;1.90;;;29.20;58.90;;;;;;4978443;28;20189;-77
2022/06/17 10:44:19;;;;;;;7.97;2.40;;;29.20;58.90;;;;;;4974298;28;20651;-79
2022/06/17 10:46:54;;;;;;;3.55;1.95;;;29.30;58.80;;;;;;4978530;28;20201;-78
2022/06/17 10:49:34;;;;;;;5.32;1.85;;;29.30;58.10;;;;;;4976103;28;20197;-77
2022/06/17 10:52:05;;;;;;;2.38;1.85;;;29.40;57.00;;;;;;4974649;28;20195;-78
2022/06/17 10:54:38;;;;;;;3.70;1.75;;;29.40;56.00;;;;;;4974062;28;20225;-77
2022/06/17 10:57:09;;;;;;;2.78;1.80;;;29.50;56.10;;;;;;4978337;28;20190;-77
2022/06/17 10:59:41;;;;;;;3.65;2.08;;;29.60;56.20;;;;;;4981949;28;20549;-77
2022/06/17 11:02:29;;;;;;;4.05;1.98;;;29.70;56.20;;;;;;4978132;28;20289;-77
2022/06/17 11:05:00;;;;;;;4.88;2.35;;;29.70;55.20;;;;;;4975253;28;20193;-76
2022/06/17 11:07:32;;;;;;;3.53;2.00;;;29.80;56.00;;;;;;4978558;28;20189;-77
2022/06/17 11:10:04;;;;;;;3.17;1.92;;;29.80;56.00;;;;;;4976872;28;20211;-76
2022/06/17 11:12:37;;;;;;;4.65;2.08;;;29.90;55.70;;;;;;4980358;28;20212;-76
2022/06/17 11:15:21;;;;;;;4.93;1.90;;;30.00;55.30;;;;;;4980107;28;20185;-77
2022/06/17 11:17:55;;;;;;;4.75;2.08;;;30.10;54.90;;;;;;4968795;28;20433;-78
2022/06/17 11:20:32;;;;;;;6.57;2.47;;;30.10;54.70;;;;;;4978047;28;20213;-77
2022/06/17 11:23:23;;;;;;;5.60;1.80;;;30.10;53.50;;;;;;4982104;28;20196;-75
2022/06/17 11:26:07;;;;;;;5.57;2.15;;;30.00;53.80;;;;;;4974545;28;20224;-76
2022/06/17 11:28:38;;;;;;;5.28;2.67;;;30.00;54.40;;;;;;4980429;28;20185;-76
2022/06/17 11:31:11;;;;;;;3.38;2.22;;;30.10;54.70;;;;;;4981353;28;20196;-77
2022/06/17 11:33:55;;;;;;;2.88;2.10;;;30.20;55.20;;;;;;4974894;28;20192;-75
2022/06/17 11:36:27;;;;;;;4.32;2.47;;;30.20;54.30;;;;;;4979538;28;20228;-75
2022/06/17 11:38:57;;;;;;;3.10;2.00;;;30.30;54.30;;;;;;4984862;28;20205;-75
2022/06/17 11:41:28;;;;;;;3.92;2.25;;;30.40;54.10;;;;;;4977448;28;20587;-75
2022/06/17 11:44:07;;;;;;;3.72;2.03;;;30.40;54.00;;;;;;4983619;28;20202;-76
2022/06/17 11:46:36;;;;;;;3.60;2.20;;;30.50;53.90;;;;;;4985353;28;20284;-76
2022/06/17 11:49:09;;;;;;;7.30;3.70;;;30.50;53.10;;;;;;4983345;28;20561;-76
2022/06/17 11:51:48;;;;;;;4.88;2.88;;;30.60;53.00;;;;;;4975339;28;20185;-76
2022/06/17 11:54:20;;;;;;;3.88;2.78;;;30.60;52.40;;;;;;4982097;28;20228;-75
2022/06/17 11:56:50;;;;;;;4.07;2.45;;;30.60;52.90;;;;;;4983968;28;20871;-75
2022/06/17 11:59:22;;;;;;;3.15;2.47;;;30.50;52.70;;;;;;4986998;28;20197;-76
2022/06/17 12:02:03;;;;;;;4.82;2.75;;;30.50;52.70;;;;;;4983279;28;20204;-76
2022/06/17 12:04:40;;;;;;;3.20;2.28;;;30.40;52.80;;;;;;4984945;28;20736;-75
2022/06/17 12:07:31;;;;;;;5.35;2.13;;;30.30;52.10;;;;;;4981174;28;20203;-76
2022/06/17 12:10:15;;;;;;;6.20;2.30;;;30.20;52.10;;;;;;4986907;28;20272;-77
2022/06/17 12:12:44;;;;;;;3.90;2.42;;;30.20;52.70;;;;;;4984631;28;20192;-76
2022/06/17 12:15:21;;;;;;;4.75;2.42;;;30.10;54.10;;;;;;4981456;28;20201;-77
2022/06/17 12:17:51;;;;;;;4.97;2.17;;;30.10;53.50;;;;;;4979770;28;20562;-78
2022/06/17 12:20:24;;;;;;;3.13;2.33;;;30.00;53.60;;;;;;4982933;28;20229;-77
2022/06/17 12:23:03;;;;;;;4.00;2.45;;;30.00;53.80;;;;;;4977201;28;20201;-77
2022/06/17 12:25:43;;;;;;;4.32;2.22;;;30.00;54.20;;;;;;4980224;28;20193;-76
2022/06/17 12:28:23;;;;;;;5.68;2.35;;;29.90;54.10;;;;;;4980502;28;20204;-77
2022/06/17 12:31:01;;;;;;;5.47;2.60;;;29.90;54.10;;;;;;4971918;28;20200;-77
2022/06/17 12:33:40;;;;;;;4.53;2.45;;;29.90;54.10;;;;;;4983794;28;20212;-77
2022/06/17 12:36:18;;;;;;;3.35;2.22;;;29.80;55.00;;;;;;4965879;28;20225;-75
2022/06/17 12:38:57;;;;;;;5.28;2.10;;;29.80;54.50;;;;;;4984110;28;20202;-77
2022/06/17 12:41:32;;;;;;;7.28;2.10;;;29.80;54.30;;;;;;4983963;28;20217;-76
2022/06/17 12:44:20;;;;;;;5.80;2.63;;;29.70;53.50;;;;;;4981245;28;20276;-75
2022/06/17 12:46:57;;;;;;;5.25;1.88;;;29.70;53.60;;;;;;4979647;28;20886;-76
2022/06/17 12:55:27;;;;;;;3.83;2.58;;;29.50;54.50;;;;;;4975189;28;20205;-75
2022/06/17 12:58:03;;;;;;;13.55;3.38;;;29.40;54.60;;;;;;4985155;28;20196;-75
2022/06/17 13:00:39;;;;;;;4.22;2.50;;;29.30;54.90;;;;;;4986138;28;20307;-75
2022/06/17 13:03:32;;;;;;;5.97;3.08;;;29.30;54.50;;;;;;4988264;28;20283;-75
2022/06/17 13:06:12;;;;;;;4.40;2.47;;;29.20;54.80;;;;;;4987203;28;20201;-75
2022/06/17 13:08:48;;;;;;;6.10;2.20;;;29.20;55.00;;;;;;4986153;28;20192;-76
2022/06/17 13:11:26;;;;;;;7.68;2.75;;;29.10;55.30;;;;;;4986752;28;20956;-77
2022/06/17 13:14:10;;;;;;;8.13;3.05;;;29.10;55.70;;;;;;4986498;28;20194;-75
2022/06/17 13:16:48;;;;;;;7.50;3.05;;;28.90;56.20;;;;;;4985624;28;20193;-79
2022/06/17 13:19:25;;;;;;;10.10;2.47;;;28.80;57.30;;;;;;4986265;28;20827;-77
2022/06/17 13:22:02;;;;;;;4.45;2.55;;;28.70;58.40;;;;;;4982849;28;20682;-77
2022/06/17 13:24:38;;;;;;;4.85;2.63;;;28.50;59.10;;;;;;4985768;28;20197;-79
2022/06/17 13:27:15;;;;;;;8.93;3.10;;;28.30;60.00;;;;;;4977336;28;20240;-76
2022/06/17 13:29:50;;;;;;;5.25;3.30;;;28.20;60.80;;;;;;4983407;28;20185;-76
2022/06/17 13:32:23;;;;;;;12.85;3.90;;;28.00;63.50;;;;;;4987067;28;20204;-76
2022/06/17 13:34:56;;;;;;;6.75;3.50;;;27.80;66.90;;;;;;4980458;28;20193;-77